Flight Track Log - Related Links

Times and Time Zones

All times are in EST time to prevent confusion due to time zone crossing. See the EJA929 flight status page for this flight to view local times or setup timezone preferences in your user account.

Time Position Orientation Groundspeed Altitude Reporting Facility
EST Latitude Longitude Course Direction KTS MPH feet Rate Location/Type
Thu 02:27:10 PM 33.9333 -84.2667 157° South 217 250 3,800  Level Atlanta TRACON
Thu 02:28:10 PM 34.0000 -84.2333 23° Northeast 249 287 5,900 1,100 Climbing Atlanta TRACON
Thu 02:29:10 PM 34.0500 -84.2500 345° North 253 291 6,000 50 Climbing Atlanta TRACON
Thu 02:30:10 PM 33.9833 -84.3167 220° Southwest 263 303 6,000  Level Atlanta TRACON
Thu 02:31:10 PM 33.9333 -84.3667 220° Southwest 269 310 6,000  Level Atlanta TRACON
Thu 02:32:00 PM 33.1599 -83.8501 157° South  Level Estimated
Thu 02:32:10 PM 33.8667 -84.3833 192° South 286 329 6,000  Level Atlanta TRACON
Thu 02:33:10 PM 33.7833 -84.3833 180° South 285 328 6,000  Level Atlanta TRACON
Thu 02:34:10 PM 33.7000 -84.3833 180° South 288 331 6,000  Level Atlanta TRACON
Thu 02:35:10 PM 33.6167 -84.3833 180° South 302 348 6,000  Level Atlanta TRACON
Thu 02:36:10 PM 33.5333 -84.3833 180° South 288 331 6,000  Level Atlanta TRACON
Thu 02:37:10 PM 33.4667 -84.3833 180° South 284 327 6,000 1,300 Level Atlanta TRACON
Thu 02:38:10 PM 33.3833 -84.3833 180° South 303 349 8,600 2,900 Climbing Atlanta TRACON
Thu 02:39:10 PM 33.3000 -84.3667 171° South 316 364 11,800 2,584 Climbing Atlanta TRACON
Thu 02:40:27 PM 33.1678 -84.3589 177° South 367 422 14,500 2,234 Climbing Atlanta Center
Thu 02:41:27 PM 33.0656 -84.3164 161° South 380 437 16,900 2,500 Climbing Atlanta Center
Thu 02:42:27 PM 32.9611 -84.2692 159° South 397 457 19,500 2,300 Climbing Atlanta Center
Thu 02:43:27 PM 32.8653 -84.2267 160° South 403 464 21,500 2,233 Climbing Atlanta Center
Thu 02:45:27 PM 32.6336 -84.1153 158° South 440 506 26,200 2,367 Climbing Atlanta Center
Thu 02:46:27 PM 32.5167 -84.0633 159° South 451 519 28,600 2,400 Climbing Atlanta Center
Thu 02:47:27 PM 32.3958 -84.0044 158° South 451 519 31,000 2,286 Climbing Atlanta Center
Thu 02:49:36 PM 32.1356 -83.8861 159° South 454 522 35,800 1,841 Climbing Jacksonville Center
Thu 02:50:36 PM 32.0086 -83.8286 159° South 472 543 36,800 600 Climbing Jacksonville Center
Thu 02:51:36 PM 31.8775 -83.7661 158° South 495 570 37,000 100 Climbing Jacksonville Center
Thu 02:52:36 PM 31.7381 -83.6986 158° South 519 597 37,000  Level Jacksonville Center
Thu 02:53:36 PM 31.5797 -83.6364 161° South 533 613 37,000  Level Jacksonville Center
Thu 02:54:36 PM 31.4403 -83.5744 159° South 541 623 37,000  Level Jacksonville Center
Thu 02:55:36 PM 31.3006 -83.5103 159° South 546 628 37,000  Level Jacksonville Center
Thu 02:56:36 PM 31.1589 -83.4486 160° South 546 628 37,000  Level Jacksonville Center
Thu 02:57:36 PM 31.0214 -83.3872 159° South 546 628 37,000  Level Jacksonville Center
Thu 02:58:36 PM 30.8839 -83.3258 159° South 541 623 37,000  Level Jacksonville Center
Thu 02:59:36 PM 30.7608 -83.2672 158° South 536 617 37,000  Level Jacksonville Center
Thu 03:00:36 PM 30.6231 -83.1992 157° South 536 617 37,000  Level Jacksonville Center
Thu 03:01:36 PM 30.4833 -83.1289 157° South 536 617 37,000  Level Jacksonville Center
Thu 03:02:36 PM 30.3436 -83.0611 157° South 536 617 37,000  Level Jacksonville Center
Thu 03:03:36 PM 30.2081 -82.9911 156° South 536 617 37,000  Level Jacksonville Center
Thu 03:04:36 PM 30.0661 -82.9214 157° South 541 623 37,000  Level Jacksonville Center
Thu 03:05:36 PM 29.9117 -82.8469 157° South 546 628 37,000  Level Jacksonville Center
Thu 03:06:36 PM 29.7717 -82.7778 157° South 546 628 37,000  Level Jacksonville Center
Thu 03:07:36 PM 29.6339 -82.7108 157° South 541 623 37,000  Level Jacksonville Center
Thu 03:08:36 PM 29.4917 -82.6708 166° South 528 608 37,000  Level Jacksonville Center
Thu 03:09:36 PM 29.3519 -82.6306 166° South 528 608 37,000  Level Jacksonville Center
Thu 03:10:36 PM 29.2097 -82.5975 169° South 523 602 37,000  Level Jacksonville Center
Thu 03:11:36 PM 29.0678 -82.5622 168° South 523 602 37,000  Level Jacksonville Center
Thu 03:12:36 PM 28.9278 -82.5272 168° South 523 602 37,000  Level Jacksonville Center
Thu 03:13:36 PM 28.7878 -82.4922 168° South 523 602 37,000  Level Jacksonville Center
Thu 03:14:36 PM 28.6731 -82.4667 169° South 499 574 37,000  Level Jacksonville Center
Thu 03:15:36 PM 28.5394 -82.4317 167° South 489 563 37,000 -450 Level Jacksonville Center
Thu 03:16:36 PM 28.4097 -82.3992 168° South 489 563 36,100 -1,000 Descending Jacksonville Center
Thu 03:17:36 PM 28.2783 -82.3694 169° South 489 563 35,000 -333 Descending Jacksonville Center
Thu 03:19:54 PM 27.9686 -82.2869 167° South 483 556 35,000  Level Miami Center
Thu 03:20:54 PM 27.8367 -82.2431 164° South 483 556 35,000 -100 Level Miami Center
Thu 03:21:54 PM 27.7069 -82.1947 162° South 490 564 34,800 -950 Descending Miami Center
Thu 03:22:54 PM 27.5731 -82.1508 164° South 490 564 33,100 -2,250 Descending Miami Center
Thu 03:23:54 PM 27.4392 -82.1050 163° South 495 570 30,300 -2,750 Descending Miami Center
Thu 03:24:54 PM 27.3278 -82.0672 163° South 480 552 27,600 -2,800 Descending Miami Center
Thu 03:25:54 PM 27.2039 -82.0267 164° South 429 494 24,700 -1,800 Descending Miami Center
Thu 03:26:54 PM 27.0925 -81.9892 163° South 422 486 24,000 -400 Descending Miami Center
Thu 03:27:54 PM 26.9750 -81.9511 164° South 422 486 23,900 -1,200 Descending Miami Center
Thu 03:28:54 PM 26.8606 -81.8833 152° Southeast 440 506 21,600 -2,000 Descending Miami Center
Thu 03:29:54 PM 26.7658 -81.7794 136° Southeast 461 531 19,900 -1,300 Descending Miami Center
Thu 03:30:54 PM 26.7056 -81.6467 117° Southeast 466 536 19,000 -450 Descending Miami Center
Thu 03:31:54 PM 26.7186 -81.5008 84° East 441 507 19,000 -400 Level Miami Center
Thu 03:32:54 PM 26.7525 -81.3533 76° East 468 539 18,200 -1,850 Descending Miami Center
Thu 03:33:54 PM 26.7883 -81.2058 75° East 483 556 15,300 -2,750 Descending Miami Center
Thu 03:34:54 PM 26.8175 -81.0719 76° East 461 531 12,700 -2,300 Descending Miami Center
Thu 03:35:54 PM 26.8317 -80.9328 83° East 444 511 10,700 -1,350 Descending Miami Center
Thu 03:36:54 PM 26.8208 -80.8019 95° East 425 489 10,000 -350 Descending Miami Center
Thu 03:37:54 PM 26.7778 -80.6936 114° Southeast 393 452 10,000 -500 Level Miami Center
Thu 03:38:54 PM 26.7464 -80.6111 113° Southeast 338 389 9,000 -1,000 Descending Miami Center
Thu 03:39:54 PM 26.7092 -80.5147 113° Southeast 313 360 8,000 -500 Descending Miami Center
Thu 03:40:54 PM 26.6800 -80.4300 111° Southeast 294 338 8,000  Level Miami Center
Thu 03:41:54 PM 26.6486 -80.3456 113° Southeast 294 338 8,000 -50 Level Miami Center
Thu 03:42:54 PM 26.6153 -80.2586 113° Southeast 300 345 7,900 -800 Descending Miami Center
Thu 03:43:54 PM 26.5856 -80.1811 113° Southeast 300 345 6,400 -1,700 Descending Miami Center
Thu 03:44:54 PM 26.5856 -80.0881 90° East 270 311 4,500 -1,900 Descending Miami Center
Thu 03:46:00 PM 26.6667 -80.0833 50° Northeast  Level FlightAware Approximate
Thu 03:53:00 PM 26.6832 -80.0956 50° Northeast  Level Estimated
Thu 03:54:00 PM 26.6832 -80.0956 50° Northeast  Level Estimated
Thu 03:55:00 PM 26.6832 -80.0956 50° Northeast  Level Estimated
Thu 03:56:00 PM 26.6832 -80.0956 50° Northeast  Level Estimated
Thu 03:57:00 PM 26.6832 -80.0956 50° Northeast  Level Estimated
Thu 03:58:00 PM 26.6832 -80.0956 50° Northeast  Level Estimated
Thu 03:59:00 PM 26.6832 -80.0956 50° Northeast  Level Estimated

Login

Don't have an account? Register now (free) for customized features, flight alerts, and more!